sensor_id;sensor_type;location;lat;lon;timestamp;P1;durP1;ratioP1;P2;durP2;ratioP2
4527;SDS011;62320;51.520;6.818;2023-01-04T00:05:13;8.20;;;2.17;;
4527;SDS011;62320;51.520;6.818;2023-01-04T00:15:14;5.45;;;1.75;;
4527;SDS011;62320;51.520;6.818;2023-01-04T00:25:15;9.77;;;1.60;;
4527;SDS011;62320;51.520;6.818;2023-01-04T00:35:17;7.23;;;2.23;;
4527;SDS011;62320;51.520;6.818;2023-01-04T00:45:38;7.10;;;1.52;;
4527;SDS011;62320;51.520;6.818;2023-01-04T00:55:40;5.57;;;1.77;;
4527;SDS011;62320;51.520;6.818;2023-01-04T01:05:41;5.23;;;1.20;;
4527;SDS011;62320;51.520;6.818;2023-01-04T01:15:42;6.87;;;1.37;;
4527;SDS011;62320;51.520;6.818;2023-01-04T01:25:44;8.10;;;1.50;;
4527;SDS011;62320;51.520;6.818;2023-01-04T01:35:45;6.23;;;1.70;;
4527;SDS011;62320;51.520;6.818;2023-01-04T01:45:51;4.83;;;1.47;;
4527;SDS011;62320;51.520;6.818;2023-01-04T01:55:55;5.72;;;1.40;;
4527;SDS011;62320;51.520;6.818;2023-01-04T02:05:58;8.40;;;1.97;;
4527;SDS011;62320;51.520;6.818;2023-01-04T02:16:38;7.37;;;1.83;;
4527;SDS011;62320;51.520;6.818;2023-01-04T02:37:12;6.72;;;2.05;;
4527;SDS011;62320;51.520;6.818;2023-01-04T02:57:52;7.37;;;1.53;;
4527;SDS011;62320;51.520;6.818;2023-01-04T03:08:04;8.15;;;1.70;;
4527;SDS011;62320;51.520;6.818;2023-01-04T03:18:27;4.80;;;1.20;;
4527;SDS011;62320;51.520;6.818;2023-01-04T03:28:32;6.07;;;2.17;;
4527;SDS011;62320;51.520;6.818;2023-01-04T03:38:57;7.90;;;1.70;;
4527;SDS011;62320;51.520;6.818;2023-01-04T03:50:06;10.97;;;2.13;;
4527;SDS011;62320;51.520;6.818;2023-01-04T03:59:55;6.90;;;1.97;;
4527;SDS011;62320;51.520;6.818;2023-01-04T04:10:01;7.30;;;2.15;;
4527;SDS011;62320;51.520;6.818;2023-01-04T04:20:02;4.68;;;1.80;;
4527;SDS011;62320;51.520;6.818;2023-01-04T04:30:04;4.63;;;1.10;;
4527;SDS011;62320;51.520;6.818;2023-01-04T04:40:06;4.20;;;1.10;;
4527;SDS011;62320;51.520;6.818;2023-01-04T04:50:28;3.42;;;1.10;;
4527;SDS011;62320;51.520;6.818;2023-01-04T05:00:29;3.30;;;0.93;;
4527;SDS011;62320;51.520;6.818;2023-01-04T05:10:31;2.60;;;0.60;;
4527;SDS011;62320;51.520;6.818;2023-01-04T05:20:33;4.00;;;0.80;;
4527;SDS011;62320;51.520;6.818;2023-01-04T05:30:34;3.73;;;0.80;;
4527;SDS011;62320;51.520;6.818;2023-01-04T05:40:52;3.93;;;0.70;;
4527;SDS011;62320;51.520;6.818;2023-01-04T05:50:54;2.90;;;0.70;;
4527;SDS011;62320;51.520;6.818;2023-01-04T06:00:55;2.78;;;0.60;;
4527;SDS011;62320;51.520;6.818;2023-01-04T06:10:56;3.17;;;0.90;;
4527;SDS011;62320;51.520;6.818;2023-01-04T06:20:58;3.13;;;1.00;;
4527;SDS011;62320;51.520;6.818;2023-01-04T06:31:05;4.05;;;1.00;;
4527;SDS011;62320;51.520;6.818;2023-01-04T06:41:08;3.77;;;1.10;;
4527;SDS011;62320;51.520;6.818;2023-01-04T06:51:09;4.13;;;1.40;;
4527;SDS011;62320;51.520;6.818;2023-01-04T07:01:11;3.65;;;1.02;;
4527;SDS011;62320;51.520;6.818;2023-01-04T07:11:13;3.77;;;1.30;;
4527;SDS011;62320;51.520;6.818;2023-01-04T07:21:14;3.47;;;1.10;;
4527;SDS011;62320;51.520;6.818;2023-01-04T07:31:16;3.38;;;1.15;;
4527;SDS011;62320;51.520;6.818;2023-01-04T07:41:17;6.03;;;1.52;;
4527;SDS011;62320;51.520;6.818;2023-01-04T07:51:19;4.73;;;1.63;;
4527;SDS011;62320;51.520;6.818;2023-01-04T08:01:20;5.37;;;1.30;;
4527;SDS011;62320;51.520;6.818;2023-01-04T08:11:22;3.85;;;1.23;;
4527;SDS011;62320;51.520;6.818;2023-01-04T08:21:25;3.97;;;1.00;;
4527;SDS011;62320;51.520;6.818;2023-01-04T08:31:28;3.97;;;1.13;;
4527;SDS011;62320;51.520;6.818;2023-01-04T08:41:33;5.15;;;1.70;;
4527;SDS011;62320;51.520;6.818;2023-01-04T08:52:10;5.03;;;1.70;;
4527;SDS011;62320;51.520;6.818;2023-01-04T09:12:24;5.70;;;1.27;;
4527;SDS011;62320;51.520;6.818;2023-01-04T09:22:26;3.50;;;1.05;;
4527;SDS011;62320;51.520;6.818;2023-01-04T09:32:28;5.53;;;1.53;;
4527;SDS011;62320;51.520;6.818;2023-01-04T09:42:31;3.47;;;1.10;;
4527;SDS011;62320;51.520;6.818;2023-01-04T09:52:49;4.60;;;1.50;;
4527;SDS011;62320;51.520;6.818;2023-01-04T10:02:55;4.67;;;1.50;;
4527;SDS011;62320;51.520;6.818;2023-01-04T10:33:55;4.33;;;1.10;;
4527;SDS011;62320;51.520;6.818;2023-01-04T10:44:10;7.53;;;1.00;;
4527;SDS011;62320;51.520;6.818;2023-01-04T10:54:30;3.97;;;1.20;;
4527;SDS011;62320;51.520;6.818;2023-01-04T11:04:59;4.20;;;1.08;;
4527;SDS011;62320;51.520;6.818;2023-01-04T11:15:13;3.77;;;1.20;;
4527;SDS011;62320;51.520;6.818;2023-01-04T11:25:16;3.83;;;0.90;;
4527;SDS011;62320;51.520;6.818;2023-01-04T11:35:57;3.92;;;1.10;;
4527;SDS011;62320;51.520;6.818;2023-01-04T11:56:21;6.20;;;1.53;;
4527;SDS011;62320;51.520;6.818;2023-01-04T12:06:35;4.35;;;1.33;;
4527;SDS011;62320;51.520;6.818;2023-01-04T12:16:50;5.47;;;1.23;;
4527;SDS011;62320;51.520;6.818;2023-01-04T12:26:56;5.27;;;1.50;;
4527;SDS011;62320;51.520;6.818;2023-01-04T12:37:03;4.25;;;1.42;;
4527;SDS011;62320;51.520;6.818;2023-01-04T12:57:38;2.90;;;0.80;;
4527;SDS011;62320;51.520;6.818;2023-01-04T13:07:40;4.70;;;1.40;;
4527;SDS011;62320;51.520;6.818;2023-01-04T13:17:45;4.18;;;1.50;;
4527;SDS011;62320;51.520;6.818;2023-01-04T13:27:55;3.80;;;1.30;;
4527;SDS011;62320;51.520;6.818;2023-01-04T13:37:58;4.10;;;1.60;;
4527;SDS011;62320;51.520;6.818;2023-01-04T13:48:02;3.85;;;1.40;;
4527;SDS011;62320;51.520;6.818;2023-01-04T13:58:15;4.20;;;1.60;;
4527;SDS011;62320;51.520;6.818;2023-01-04T14:08:20;5.67;;;1.80;;
4527;SDS011;62320;51.520;6.818;2023-01-04T14:18:30;3.83;;;1.42;;
4527;SDS011;62320;51.520;6.818;2023-01-04T14:28:33;5.25;;;1.90;;
4527;SDS011;62320;51.520;6.818;2023-01-04T14:49:10;7.63;;;2.40;;
4527;SDS011;62320;51.520;6.818;2023-01-04T14:59:11;7.70;;;2.30;;
4527;SDS011;62320;51.520;6.818;2023-01-04T15:09:12;6.53;;;1.67;;
4527;SDS011;62320;51.520;6.818;2023-01-04T15:19:14;5.10;;;1.97;;
4527;SDS011;62320;51.520;6.818;2023-01-04T15:29:16;6.75;;;2.40;;
4527;SDS011;62320;51.520;6.818;2023-01-04T15:39:17;12.80;;;4.07;;
4527;SDS011;62320;51.520;6.818;2023-01-04T15:49:18;9.87;;;3.60;;
4527;SDS011;62320;51.520;6.818;2023-01-04T15:59:20;10.57;;;3.25;;
4527;SDS011;62320;51.520;6.818;2023-01-04T16:09:21;5.43;;;1.90;;
4527;SDS011;62320;51.520;6.818;2023-01-04T16:19:23;7.87;;;2.40;;
4527;SDS011;62320;51.520;6.818;2023-01-04T16:29:24;9.40;;;2.93;;
4527;SDS011;62320;51.520;6.818;2023-01-04T16:39:26;7.28;;;2.60;;
4527;SDS011;62320;51.520;6.818;2023-01-04T16:49:50;10.90;;;3.30;;
4527;SDS011;62320;51.520;6.818;2023-01-04T16:59:52;8.00;;;2.57;;
4527;SDS011;62320;51.520;6.818;2023-01-04T17:09:54;7.32;;;1.92;;
4527;SDS011;62320;51.520;6.818;2023-01-04T17:19:55;4.83;;;1.73;;
4527;SDS011;62320;51.520;6.818;2023-01-04T17:29:57;6.80;;;1.93;;
4527;SDS011;62320;51.520;6.818;2023-01-04T17:39:58;10.70;;;2.60;;
4527;SDS011;62320;51.520;6.818;2023-01-04T17:49:59;7.57;;;2.00;;
4527;SDS011;62320;51.520;6.818;2023-01-04T18:00:01;7.47;;;2.10;;
4527;SDS011;62320;51.520;6.818;2023-01-04T18:10:03;10.20;;;2.43;;
4527;SDS011;62320;51.520;6.818;2023-01-04T18:20:05;7.75;;;1.80;;
4527;SDS011;62320;51.520;6.818;2023-01-04T18:30:07;8.97;;;2.07;;
4527;SDS011;62320;51.520;6.818;2023-01-04T18:40:11;12.20;;;2.10;;
4527;SDS011;62320;51.520;6.818;2023-01-04T18:50:15;11.30;;;2.58;;
4527;SDS011;62320;51.520;6.818;2023-01-04T19:00:17;14.80;;;2.43;;
4527;SDS011;62320;51.520;6.818;2023-01-04T19:10:19;14.73;;;2.97;;
4527;SDS011;62320;51.520;6.818;2023-01-04T19:20:21;16.17;;;3.20;;
4527;SDS011;62320;51.520;6.818;2023-01-04T19:30:23;20.70;;;3.28;;
4527;SDS011;62320;51.520;6.818;2023-01-04T19:40:24;15.27;;;3.00;;
4527;SDS011;62320;51.520;6.818;2023-01-04T19:50:26;20.07;;;2.57;;
4527;SDS011;62320;51.520;6.818;2023-01-04T20:00:27;13.23;;;2.85;;
4527;SDS011;62320;51.520;6.818;2023-01-04T20:10:28;12.57;;;2.73;;
4527;SDS011;62320;51.520;6.818;2023-01-04T20:20:30;10.40;;;2.33;;
4527;SDS011;62320;51.520;6.818;2023-01-04T20:30:31;12.65;;;2.72;;
4527;SDS011;62320;51.520;6.818;2023-01-04T20:40:34;18.80;;;3.43;;
4527;SDS011;62320;51.520;6.818;2023-01-04T20:50:37;14.23;;;3.63;;
4527;SDS011;62320;51.520;6.818;2023-01-04T21:00:38;14.55;;;3.00;;
4527;SDS011;62320;51.520;6.818;2023-01-04T21:10:41;11.05;;;2.58;;
4527;SDS011;62320;51.520;6.818;2023-01-04T21:20:43;16.10;;;2.80;;
4527;SDS011;62320;51.520;6.818;2023-01-04T21:30:45;17.57;;;3.27;;
4527;SDS011;62320;51.520;6.818;2023-01-04T21:40:48;15.05;;;2.00;;
4527;SDS011;62320;51.520;6.818;2023-01-04T21:50:50;16.67;;;3.27;;
4527;SDS011;62320;51.520;6.818;2023-01-04T22:00:51;15.70;;;3.53;;
4527;SDS011;62320;51.520;6.818;2023-01-04T22:10:53;16.85;;;4.47;;
4527;SDS011;62320;51.520;6.818;2023-01-04T22:21:09;15.00;;;2.77;;
4527;SDS011;62320;51.520;6.818;2023-01-04T22:31:13;19.90;;;4.57;;
4527;SDS011;62320;51.520;6.818;2023-01-04T22:41:15;17.48;;;3.95;;
4527;SDS011;62320;51.520;6.818;2023-01-04T22:51:19;15.30;;;3.05;;
4527;SDS011;62320;51.520;6.818;2023-01-04T23:01:22;16.43;;;3.10;;
4527;SDS011;62320;51.520;6.818;2023-01-04T23:11:29;13.50;;;3.10;;
4527;SDS011;62320;51.520;6.818;2023-01-04T23:21:32;15.70;;;4.43;;
4527;SDS011;62320;51.520;6.818;2023-01-04T23:31:35;10.90;;;2.80;;
4527;SDS011;62320;51.520;6.818;2023-01-04T23:41:37;12.50;;;2.77;;
4527;SDS011;62320;51.520;6.818;2023-01-04T23:51:45;13.18;;;3.65;;
